Terminal Aerodrome Forecast
Issued by NWS

Home | Current Version | Previous Version | Text Only | Print | Product List | Glossary On
Versions: 1 2 3 4 5 6 7 8 9 10 11 12 13 14 15 16 17 18 19
000
FTUS46 KHNX 172006 AAA
TAFVIS
TAF AMD
KVIS 172006Z 1720/1818 00000KT P6SM SCT005 SCT011 OVC050
     FM180100 13003KT 3SM BR OVC050 PROB30 1806/1810 -SHRA
     FM181200 VRB03KT 1SM BR BKN050
      TEMPO 1813/1816 1/4SM FG OVC001=

USA.gov is the U.S. government's official web portal to all federal, state and local government web resources and services.